createdAt,value
2019-04-14T00:01:30.528Z,99594.55
2019-04-14T00:04:31.225Z,99599.72
2019-04-14T00:07:03.693Z,99597.95
2019-04-14T00:09:36.305Z,99585.67
2019-04-14T00:12:09.017Z,99586.11
2019-04-14T00:14:40.411Z,99591.58
2019-04-14T00:17:11.276Z,99575.91
2019-04-14T00:19:44.147Z,99583.95
2019-04-14T00:22:16.203Z,99578.44
2019-04-14T00:24:48.949Z,99576.74
2019-04-14T00:27:21.231Z,99574.61
2019-04-14T00:29:53.214Z,99575.90
2019-04-14T00:32:24.833Z,99578.03
2019-04-14T00:35:21.003Z,99570.81
2019-04-14T00:38:17.465Z,99576.76
2019-04-14T00:41:13.730Z,99569.98
2019-04-14T00:44:09.991Z,99564.50
2019-04-14T00:46:55.978Z,99563.20
2019-04-14T00:49:28.902Z,99561.53
2019-04-14T00:52:01.521Z,99563.17
2019-04-14T00:54:34.638Z,99555.98
2019-04-14T00:57:05.269Z,99561.92
2019-04-14T00:59:38.408Z,99559.77
2019-04-14T01:02:09.883Z,99552.17
2019-04-14T01:04:42.669Z,99551.72
2019-04-14T01:07:13.462Z,99550.89
2019-04-14T01:09:44.326Z,99558.09
2019-04-14T01:12:17.091Z,99545.83
2019-04-14T01:14:49.474Z,99542.88
2019-04-14T01:17:22.015Z,99544.61
2019-04-14T01:19:55.462Z,99550.97
2019-04-14T01:22:27.511Z,99561.49
2019-04-14T01:24:59.995Z,99546.25
2019-04-14T01:27:30.450Z,99548.39
2019-04-14T01:30:04.518Z,99549.69
2019-04-14T01:32:37.604Z,99543.77
2019-04-14T01:35:09.635Z,99544.64
2019-04-14T01:37:41.886Z,99545.02
2019-04-14T01:40:12.475Z,99547.58
2019-04-14T01:42:46.370Z,99548.02
2019-04-14T01:45:18.647Z,99546.76
2019-04-14T01:47:49.591Z,99545.08
2019-04-14T01:50:23.437Z,99545.44
2019-04-14T01:53:22.865Z,99538.61
2019-04-14T01:56:05.651Z,99538.67
2019-04-14T01:58:49.759Z,99533.14
2019-04-14T02:01:32.460Z,99531.49
2019-04-14T02:04:05.575Z,99527.23
2019-04-14T02:06:37.604Z,99526.84
2019-04-14T02:09:10.401Z,99528.52
2019-04-14T02:11:40.886Z,99528.54
2019-04-14T02:14:14.778Z,99528.94
2019-04-14T02:16:53.579Z,99523.81
2019-04-14T02:19:21.936Z,99527.69
2019-04-14T02:21:54.679Z,99530.20
2019-04-14T02:24:26.340Z,99531.85
2019-04-14T02:26:59.121Z,99519.14
2019-04-14T02:29:29.838Z,99519.59
2019-04-14T02:32:43.363Z,99528.01
2019-04-14T02:35:03.046Z,99519.55
2019-04-14T02:37:44.860Z,99524.64
2019-04-14T02:40:12.969Z,99528.09
2019-04-14T02:42:48.270Z,99531.86
2019-04-14T02:45:22.632Z,99525.92
2019-04-14T02:50:26.332Z,99525.11
2019-04-14T02:53:01.667Z,99519.61
2019-04-14T02:55:31.777Z,99519.23
2019-04-14T02:58:16.076Z,99515.34
2019-04-14T03:00:41.436Z,99517.03
2019-04-14T03:03:17.949Z,99519.98
2019-04-14T03:08:23.595Z,99519.17
2019-04-14T03:15:56.855Z,99512.39
2019-04-14T03:18:54.333Z,99515.77
2019-04-14T03:22:05.139Z,99517.06
2019-04-14T03:24:39.172Z,99518.31
2019-04-14T03:27:45.819Z,99516.22
2019-04-14T03:33:32.509Z,99516.65
2019-04-14T03:38:20.570Z,99528.46
2019-04-14T03:40:45.809Z,99514.04
2019-04-14T03:43:18.806Z,99511.50
2019-04-14T03:45:51.998Z,99506.44
2019-04-14T03:48:45.087Z,99516.58
2019-04-14T03:51:00.396Z,99526.75
2019-04-14T03:53:27.190Z,99523.73
2019-04-14T03:56:14.909Z,99522.95
2019-04-14T03:58:47.215Z,99526.30
2019-04-14T04:01:19.397Z,99521.30
2019-04-14T04:03:52.168Z,99522.13
2019-04-14T04:06:24.567Z,99525.08
2019-04-14T04:08:55.463Z,99529.23
2019-04-14T04:11:26.144Z,99520.36
2019-04-14T04:13:58.541Z,99514.84
2019-04-14T04:16:51.390Z,99513.17
2019-04-14T04:19:29.426Z,99509.80
2019-04-14T04:22:19.311Z,99519.05
2019-04-14T04:25:00.808Z,99511.38
2019-04-14T04:27:46.175Z,99506.80
2019-04-14T04:30:34.564Z,99509.38
2019-04-14T04:33:30.943Z,99509.38
2019-04-14T04:36:05.302Z,99509.41
2019-04-14T04:38:46.382Z,99517.00
2019-04-14T04:41:17.207Z,99522.50
2019-04-14T04:43:49.378Z,99528.01
2019-04-14T04:46:22.083Z,99528.81
2019-04-14T04:49:03.364Z,99538.17
2019-04-14T04:51:25.387Z,99533.50
2019-04-14T04:53:57.055Z,99536.44
2019-04-14T04:56:27.580Z,99538.15
2019-04-14T04:59:01.068Z,99535.62
2019-04-14T05:01:31.788Z,99540.70
2019-04-14T05:04:04.635Z,99547.45
2019-04-14T05:07:07.783Z,99552.54
2019-04-14T05:10:04.697Z,99552.11
2019-04-14T05:12:47.860Z,99560.61
2019-04-14T05:15:40.274Z,99565.67
2019-04-14T05:18:24.672Z,99563.98
2019-04-14T05:20:57.437Z,99561.45
2019-04-14T05:23:29.933Z,99564.80
2019-04-14T05:26:01.050Z,99555.93
2019-04-14T05:28:31.647Z,99556.34
2019-04-14T05:31:03.337Z,99555.16
2019-04-14T05:33:36.033Z,99554.67
2019-04-14T05:36:06.602Z,99555.09
2019-04-14T05:38:40.780Z,99555.10
2019-04-14T05:41:13.786Z,99557.15
2019-04-14T05:43:52.004Z,99551.25
2019-04-14T05:46:20.765Z,99568.16
2019-04-14T05:48:51.498Z,99560.98
2019-04-14T05:51:23.319Z,99573.67
2019-04-14T05:53:54.695Z,99578.23
2019-04-14T05:56:25.766Z,99579.53
2019-04-14T05:58:57.887Z,99574.03
2019-04-14T06:01:46.527Z,99577.09
2019-04-14T06:04:17.829Z,99582.56
2019-04-14T06:06:48.802Z,99578.70
2019-04-14T06:09:20.743Z,99573.54
2019-04-14T06:11:53.816Z,99579.55
2019-04-14T06:14:26.816Z,99579.54
2019-04-14T06:16:57.836Z,99575.00
2019-04-14T06:19:37.826Z,99569.53
2019-04-14T06:22:01.894Z,99567.34
2019-04-14T06:24:32.944Z,99567.39
2019-04-14T06:27:03.766Z,99563.56
2019-04-14T06:29:36.868Z,99557.23
2019-04-14T06:32:47.153Z,99560.17
2019-04-14T06:35:41.212Z,99558.96
2019-04-14T06:38:22.349Z,99553.95
2019-04-14T06:40:58.483Z,99559.87
2019-04-14T06:43:29.972Z,99557.31
2019-04-14T06:46:01.966Z,99556.47
2019-04-14T06:48:33.058Z,99555.20
2019-04-14T06:51:04.311Z,99577.64
2019-04-14T06:53:35.912Z,99572.97
2019-04-14T06:56:06.649Z,99580.13
2019-04-14T06:58:37.223Z,99595.45
2019-04-14T07:01:07.843Z,99591.21
2019-04-14T07:03:38.374Z,99597.50
2019-04-14T07:06:09.006Z,99588.16
2019-04-14T07:08:39.534Z,99592.84
2019-04-14T07:11:10.147Z,99590.72
2019-04-14T07:13:40.719Z,99588.98
2019-04-14T07:16:11.154Z,99597.08
2019-04-14T07:18:42.014Z,99594.09
2019-04-14T07:21:12.665Z,99596.69
2019-04-14T07:23:43.174Z,99590.28
2019-04-14T07:26:13.823Z,99587.81
2019-04-14T07:28:56.199Z,99588.20
2019-04-14T07:31:42.383Z,99592.47
2019-04-14T07:34:32.185Z,99598.34
2019-04-14T07:37:21.477Z,99593.31
2019-04-14T07:40:07.592Z,99598.84
2019-04-14T07:42:47.499Z,99594.59
2019-04-14T07:45:52.064Z,99591.31
2019-04-14T07:48:34.505Z,99596.93
2019-04-14T07:51:20.218Z,99597.68
2019-04-14T07:53:57.065Z,99602.34
2019-04-14T07:56:51.244Z,99600.33
2019-04-14T07:59:31.252Z,99603.23
2019-04-14T08:02:22.215Z,99606.59
2019-04-14T08:05:05.215Z,99604.93
2019-04-14T08:07:36.599Z,99603.60
2019-04-14T08:10:08.616Z,99604.02
2019-04-14T08:12:39.306Z,99598.20
2019-04-14T08:15:10.136Z,99595.26
2019-04-14T08:17:43.454Z,99599.55
2019-04-14T08:20:26.495Z,99597.02
2019-04-14T08:22:47.289Z,99596.61
2019-04-14T08:25:17.826Z,99610.17
2019-04-14T08:27:49.669Z,99610.58
2019-04-14T08:30:20.619Z,99608.84
2019-04-14T08:32:53.569Z,99604.20
2019-04-14T08:35:26.550Z,99605.05
2019-04-14T08:37:57.955Z,99612.69
2019-04-14T08:40:29.602Z,99618.62
2019-04-14T08:43:35.210Z,99616.07
2019-04-14T08:46:27.298Z,99618.17
2019-04-14T08:49:04.846Z,99619.43
2019-04-14T08:51:50.796Z,99615.20
2019-04-14T08:54:29.670Z,99618.62
2019-04-14T08:57:13.025Z,99617.77
2019-04-14T09:00:00.242Z,99624.56
2019-04-14T09:02:50.049Z,99619.47
2019-04-14T09:05:30.230Z,99625.41
2019-04-14T09:08:25.261Z,99622.01
2019-04-14T09:10:58.675Z,99619.87
2019-04-14T09:13:29.523Z,99621.19
2019-04-14T09:16:00.566Z,99627.92
2019-04-14T09:18:33.523Z,99624.12
2019-04-14T09:21:04.736Z,99620.30
2019-04-14T09:23:37.730Z,99622.86
2019-04-14T09:26:08.629Z,99628.79
2019-04-14T09:28:39.689Z,99620.32
2019-04-14T09:31:10.776Z,99624.12
2019-04-14T09:33:43.779Z,99616.09
2019-04-14T09:36:14.217Z,99616.09
2019-04-14T09:38:44.814Z,99619.00
2019-04-14T09:41:15.246Z,99608.77
2019-04-14T09:43:45.804Z,99612.55
2019-04-14T09:46:16.532Z,99611.98
2019-04-14T09:48:47.138Z,99617.09
2019-04-14T09:51:17.962Z,99608.23
2019-04-14T09:53:48.330Z,99614.00
2019-04-14T09:56:18.832Z,99609.70
2019-04-14T09:58:49.522Z,99607.33
2019-04-14T10:01:21.647Z,99608.91
2019-04-14T10:03:52.245Z,99602.90
2019-04-14T10:06:24.006Z,99604.67
2019-04-14T10:08:56.945Z,99607.67
2019-04-14T10:11:27.922Z,99606.91
2019-04-14T10:13:58.955Z,99604.42
2019-04-14T10:16:31.870Z,99603.37
2019-04-14T10:19:02.960Z,99596.73
2019-04-14T10:21:34.031Z,99607.15
2019-04-14T10:24:06.907Z,99599.14
2019-04-14T10:26:38.028Z,99600.50
2019-04-14T10:29:08.967Z,99611.80
2019-04-14T10:31:41.967Z,99610.15
2019-04-14T10:34:12.819Z,99619.36
2019-04-14T10:36:43.285Z,99617.02
2019-04-14T10:39:13.844Z,99621.22
2019-04-14T10:41:44.273Z,99621.52
2019-04-14T10:44:14.929Z,99618.75
2019-04-14T10:46:45.546Z,99617.72
2019-04-14T10:49:16.185Z,99617.87
2019-04-14T10:51:46.849Z,99615.21
2019-04-14T10:54:17.323Z,99611.63
2019-04-14T10:56:47.858Z,99614.28
2019-04-14T10:59:18.266Z,99624.28
2019-04-14T11:01:49.069Z,99620.13
2019-04-14T11:04:19.683Z,99618.27
2019-04-14T11:07:09.131Z,99614.38
2019-04-14T11:09:41.186Z,99610.13
2019-04-14T11:12:12.258Z,99607.97
2019-04-14T11:14:45.259Z,99607.40
2019-04-14T11:17:17.333Z,99606.94
2019-04-14T11:19:50.155Z,99603.36
2019-04-14T11:22:21.247Z,99603.88
2019-04-14T11:24:54.072Z,99607.67
2019-04-14T11:27:24.766Z,99614.23
2019-04-14T11:29:55.167Z,99610.11
2019-04-14T11:32:41.425Z,99607.44
2019-04-14T11:35:22.884Z,99615.38
2019-04-14T11:38:15.828Z,99619.44
2019-04-14T11:40:50.602Z,99625.23
2019-04-14T11:43:21.428Z,99629.72
2019-04-14T11:45:53.343Z,99632.70
2019-04-14T11:48:24.501Z,99629.00
2019-04-14T11:50:55.726Z,99623.41
2019-04-14T11:53:27.391Z,99615.89
2019-04-14T11:55:58.300Z,99615.66
2019-04-14T11:58:29.291Z,99631.50
2019-04-14T12:01:27.456Z,99609.03
2019-04-14T12:04:11.062Z,99611.16
2019-04-14T12:06:59.605Z,99610.39
2019-04-14T12:09:43.447Z,99611.23
2019-04-14T12:12:14.422Z,99611.59
2019-04-14T12:14:47.548Z,99612.16
2019-04-14T12:17:18.121Z,99611.22
2019-04-14T12:19:49.511Z,99608.81
2019-04-14T12:22:21.537Z,99613.94
2019-04-14T12:24:53.388Z,99606.95
2019-04-14T12:27:23.977Z,99598.00
2019-04-14T12:29:54.499Z,99604.63
2019-04-14T12:32:25.098Z,99605.48
2019-04-14T12:34:55.767Z,99607.63
2019-04-14T12:37:26.370Z,99608.69
2019-04-14T12:39:57.071Z,99607.56
2019-04-14T12:42:58.566Z,99601.91
2019-04-14T12:45:48.460Z,99593.17
2019-04-14T12:48:43.365Z,99589.93
2019-04-14T12:51:21.571Z,99591.30
2019-04-14T12:53:54.622Z,99583.63
2019-04-14T12:56:28.507Z,99585.73
2019-04-14T12:59:23.108Z,99581.95
2019-04-14T13:02:13.421Z,99587.06
2019-04-14T13:04:44.900Z,99582.65
2019-04-14T13:07:15.536Z,99582.37
2019-04-14T13:09:48.634Z,99589.22
2019-04-14T13:12:19.201Z,99583.70
2019-04-14T13:14:51.366Z,99583.02
2019-04-14T13:17:23.802Z,99583.49
2019-04-14T13:19:56.831Z,99577.81
2019-04-14T13:22:33.934Z,99585.20
2019-04-14T13:25:00.833Z,99579.72
2019-04-14T13:27:31.783Z,99578.17
2019-04-14T13:30:02.209Z,99575.55
2019-04-14T13:32:36.256Z,99573.27
2019-04-14T13:35:07.344Z,99584.80
2019-04-14T13:37:38.979Z,99582.02
2019-04-14T13:40:10.886Z,99577.81
2019-04-14T13:42:41.277Z,99572.45
2019-04-14T13:45:12.045Z,99576.38
2019-04-14T13:47:43.085Z,99576.45
2019-04-14T13:50:15.978Z,99583.22
2019-04-14T13:52:47.510Z,99581.02
2019-04-14T13:55:18.192Z,99584.02
2019-04-14T13:57:51.235Z,99578.93
2019-04-14T14:00:24.202Z,99585.04
2019-04-14T14:02:57.006Z,99580.18
2019-04-14T14:05:29.926Z,99580.98
2019-04-14T14:08:02.104Z,99584.72
2019-04-14T14:10:33.267Z,99586.48
2019-04-14T14:13:17.533Z,99586.34
2019-04-14T14:16:16.187Z,99587.98
2019-04-14T14:18:59.408Z,99589.48
2019-04-14T14:21:44.063Z,99586.18
2019-04-14T14:24:42.848Z,99584.23
2019-04-14T14:27:16.052Z,99586.42
2019-04-14T14:29:49.040Z,99581.20
2019-04-14T14:32:35.308Z,99581.47
2019-04-14T14:35:07.350Z,99577.13
2019-04-14T14:37:39.175Z,99576.60
2019-04-14T14:40:10.347Z,99574.25
2019-04-14T14:42:40.777Z,99573.22
2019-04-14T14:45:42.428Z,99572.73
2019-04-14T14:48:19.694Z,99576.84
2019-04-14T14:51:09.174Z,99568.80
2019-04-14T14:53:40.243Z,99567.68
2019-04-14T14:56:13.257Z,99574.87
2019-04-14T14:58:45.457Z,99570.93
2019-04-14T15:01:18.062Z,99574.57
2019-04-14T15:03:48.474Z,99576.44
2019-04-14T15:06:20.511Z,99574.13
2019-04-14T15:08:52.279Z,99576.70
2019-04-14T15:11:24.189Z,99575.31
2019-04-14T15:13:56.300Z,99581.54
2019-04-14T15:16:27.310Z,99571.53
2019-04-14T15:19:00.414Z,99572.00
2019-04-14T15:21:31.384Z,99563.41
2019-04-14T15:24:02.287Z,99573.28
2019-04-14T15:26:35.278Z,99571.30
2019-04-14T15:29:06.225Z,99569.97
2019-04-14T15:31:36.957Z,99573.85
2019-04-14T15:34:07.467Z,99575.84
2019-04-14T15:36:38.084Z,99572.21
2019-04-14T15:39:09.303Z,99573.18
2019-04-14T15:41:42.465Z,99566.05
2019-04-14T15:44:15.371Z,99574.20
2019-04-14T15:46:46.377Z,99576.40
2019-04-14T15:49:18.065Z,99583.64
2019-04-14T15:51:49.500Z,99587.06
2019-04-14T15:54:21.459Z,99579.38
2019-04-14T15:57:19.780Z,99582.07
2019-04-14T16:00:11.307Z,99583.34
2019-04-14T16:03:04.289Z,99586.67
2019-04-14T16:05:44.145Z,99584.11
2019-04-14T16:08:20.398Z,99590.22
2019-04-14T16:11:10.521Z,99589.33
2019-04-14T16:13:53.757Z,99585.25
2019-04-14T16:16:47.091Z,99589.75
2019-04-14T16:19:37.313Z,99586.38
2019-04-14T16:22:09.669Z,99585.05
2019-04-14T16:24:40.607Z,99589.23
2019-04-14T16:27:23.246Z,99584.97
2019-04-14T16:30:15.512Z,99588.28
2019-04-14T16:33:04.185Z,99597.25
2019-04-14T16:35:38.241Z,99594.63
2019-04-14T16:38:10.922Z,99589.29
2019-04-14T16:40:41.785Z,99588.18
2019-04-14T16:43:14.775Z,99587.95
2019-04-14T16:45:45.641Z,99579.77
2019-04-14T16:48:16.139Z,99577.69
2019-04-14T16:50:46.883Z,99577.38
2019-04-14T16:53:23.109Z,99579.20
2019-04-14T16:56:10.296Z,99584.74
2019-04-14T16:58:47.717Z,99581.37
2019-04-14T17:01:23.148Z,99575.79
2019-04-14T17:03:53.602Z,99576.06
2019-04-14T17:06:24.792Z,99576.06
2019-04-14T17:08:56.900Z,99578.81
2019-04-14T17:11:27.312Z,99571.88
2019-04-14T17:14:25.499Z,99573.70
2019-04-14T17:17:19.624Z,99580.55
2019-04-14T17:20:05.279Z,99582.26
2019-04-14T17:22:54.803Z,99585.20
2019-04-14T17:25:32.571Z,99590.46
2019-04-14T17:28:16.500Z,99587.65
2019-04-14T17:30:53.509Z,99585.12
2019-04-14T17:33:37.265Z,99593.69
2019-04-14T17:36:27.786Z,99593.34
2019-04-14T17:39:25.059Z,99588.65
2019-04-14T17:42:03.127Z,99596.39
2019-04-14T17:44:53.850Z,99591.38
2019-04-14T17:47:45.365Z,99601.57
2019-04-14T17:50:40.986Z,99606.22
2019-04-14T17:53:30.666Z,99604.30
2019-04-14T17:56:26.646Z,99609.44
2019-04-14T17:59:03.149Z,99611.61
2019-04-14T18:01:55.118Z,99610.72
2019-04-14T18:04:52.956Z,99616.95
2019-04-14T18:07:32.961Z,99621.30
2019-04-14T18:10:22.720Z,99624.28
2019-04-14T18:13:13.639Z,99632.31
2019-04-14T18:16:04.787Z,99634.51
2019-04-14T18:18:57.142Z,99629.40
2019-04-14T18:21:30.208Z,99635.84
2019-04-14T18:24:02.983Z,99640.83
2019-04-14T18:26:33.632Z,99637.61
2019-04-14T18:29:21.366Z,99644.30
2019-04-14T18:32:14.199Z,99647.28
2019-04-14T18:35:02.557Z,99641.41
2019-04-14T18:38:00.018Z,99644.94
2019-04-14T18:40:43.579Z,99651.02
2019-04-14T18:43:30.218Z,99653.91
2019-04-14T18:46:23.276Z,99653.62
2019-04-14T18:48:59.592Z,99659.11
2019-04-14T18:51:38.305Z,99669.30
2019-04-14T18:54:22.765Z,99671.08
2019-04-14T18:57:19.045Z,99673.69
2019-04-14T19:00:20.230Z,99678.79
2019-04-14T19:02:52.587Z,99680.05
2019-04-14T19:05:24.480Z,99677.46
2019-04-14T19:07:58.828Z,99685.11
2019-04-14T19:10:29.291Z,99681.37
2019-04-14T19:13:17.050Z,99683.88
2019-04-14T19:15:57.899Z,99691.11
2019-04-14T19:18:41.698Z,99688.16
2019-04-14T19:21:25.677Z,99686.01
2019-04-14T19:23:56.452Z,99692.81
2019-04-14T19:26:28.360Z,99696.25
2019-04-14T19:29:01.450Z,99692.84
2019-04-14T19:31:32.582Z,99694.99
2019-04-14T19:34:03.466Z,99688.11
2019-04-14T19:36:34.185Z,99697.05
2019-04-14T19:39:08.824Z,99702.66
2019-04-14T19:41:41.509Z,99693.30
2019-04-14T19:44:13.498Z,99692.84
2019-04-14T19:46:45.621Z,99697.99
2019-04-14T19:49:17.594Z,99693.30
2019-04-14T19:51:48.592Z,99697.55
2019-04-14T19:54:18.958Z,99693.36
2019-04-14T19:56:50.536Z,99688.27
2019-04-14T19:59:21.710Z,99690.42
2019-04-14T20:01:57.355Z,99691.69
2019-04-14T20:04:28.674Z,99689.92
2019-04-14T20:07:04.588Z,99689.53
2019-04-14T20:09:35.599Z,99693.36
2019-04-14T20:12:08.759Z,99684.88
2019-04-14T20:15:20.864Z,99680.14
2019-04-14T20:18:04.757Z,99690.78
2019-04-14T20:21:13.551Z,99691.64
2019-04-14T20:23:52.358Z,99688.61
2019-04-14T20:26:36.899Z,99687.36
2019-04-14T20:29:14.320Z,99698.42
2019-04-14T20:31:57.276Z,99691.94
2019-04-14T20:34:27.920Z,99689.94
2019-04-14T20:36:59.785Z,99699.67
2019-04-14T20:39:54.848Z,99700.55
2019-04-14T20:42:27.887Z,99698.42
2019-04-14T20:44:59.880Z,99707.83
2019-04-14T20:47:51.950Z,99711.28
2019-04-14T20:50:25.433Z,99708.28
2019-04-14T20:52:56.744Z,99710.85
2019-04-14T20:55:28.045Z,99716.38
2019-04-14T20:57:58.935Z,99715.58
2019-04-14T21:00:32.492Z,99721.10
2019-04-14T21:03:21.458Z,99722.28
2019-04-14T21:06:31.064Z,99724.47
2019-04-14T21:09:27.223Z,99726.66
2019-04-14T21:12:06.271Z,99733.89
2019-04-14T21:15:01.272Z,99730.52
2019-04-14T21:17:48.162Z,99736.05
2019-04-14T21:20:36.751Z,99736.08
2019-04-14T21:23:42.422Z,99737.34
2019-04-14T21:26:42.177Z,99740.36
2019-04-14T21:29:26.011Z,99738.98
2019-04-14T21:32:13.390Z,99758.63
2019-04-14T21:35:09.816Z,99750.09
2019-04-14T21:38:10.091Z,99759.47
2019-04-14T21:40:46.451Z,99765.39
2019-04-14T21:43:30.840Z,99767.14
2019-04-14T21:46:03.175Z,99773.08
2019-04-14T21:48:45.613Z,99780.72
2019-04-14T21:51:16.220Z,99782.46
2019-04-14T21:53:48.388Z,99776.95
2019-04-14T21:56:20.873Z,99779.92
2019-04-14T21:59:00.310Z,99781.23
2019-04-14T22:01:52.299Z,99781.66
2019-04-14T22:05:13.003Z,99789.77
2019-04-14T22:08:07.093Z,99784.68
2019-04-14T22:10:59.400Z,99790.25
2019-04-14T22:13:31.163Z,99788.14
2019-04-14T22:16:12.329Z,99791.12
2019-04-14T22:18:43.362Z,99788.55
2019-04-14T22:21:15.421Z,99794.09
2019-04-14T22:24:00.403Z,99791.12
2019-04-14T22:26:26.329Z,99795.80
2019-04-14T22:28:55.410Z,99795.37
2019-04-14T22:31:28.323Z,99794.55
2019-04-14T22:34:01.337Z,99794.95
2019-04-14T22:36:32.438Z,99796.22
2019-04-14T22:39:07.551Z,99811.51
2019-04-14T22:41:42.252Z,99806.38
2019-04-14T22:44:20.207Z,99803.86
2019-04-14T22:47:04.051Z,99805.57
2019-04-14T22:49:43.313Z,99814.08
2019-04-14T22:52:19.411Z,99813.23
2019-04-14T22:54:52.370Z,99818.76
2019-04-14T22:57:25.373Z,99815.39
2019-04-14T22:59:56.433Z,99823.42
2019-04-14T23:02:45.849Z,99829.84
2019-04-14T23:05:43.264Z,99820.02
2019-04-14T23:08:21.553Z,99829.41
2019-04-14T23:11:03.914Z,99838.33
2019-04-14T23:13:53.129Z,99840.87
2019-04-14T23:16:32.868Z,99842.59
2019-04-14T23:19:11.627Z,99849.78
2019-04-14T23:22:11.391Z,99851.94
2019-04-14T23:24:45.924Z,99841.72
2019-04-14T23:27:16.508Z,99857.47
2019-04-14T23:29:48.715Z,99854.92
2019-04-14T23:32:25.715Z,99843.44
2019-04-14T23:34:58.639Z,99851.07
2019-04-14T23:37:31.624Z,99848.13
2019-04-14T23:40:03.252Z,99848.55
2019-04-14T23:42:34.632Z,99842.59
2019-04-14T23:45:07.828Z,99844.73
2019-04-14T23:47:41.263Z,99842.19
2019-04-14T23:50:27.905Z,99844.33
2019-04-14T23:53:15.729Z,99835.81
2019-04-14T23:55:50.263Z,99846.47
2019-04-14T23:58:23.312Z,99845.58
